Lawrenceville, Indiana
Current Conditions -  °F | °C
As of 11:15 AM on Wednesday 28 Jan 2015 (Local Time) from KI67 Reporting Station
Clear Clear  
Wind Chill: 21°   Ceiling: Unl
Heat Index: 27°   Visibility: 10mi
Dew Point: 18°   Wind: 5mph
Humidity: 69%   Direction: 200°SSW
Pressure: 30.39"   Gusts: NA
Location:  39.2635°N, 85.1027°W
Report Text: KI67 281615Z AUTO 20004KT 10SM CLR M03/M08 A3039 RMK AO1
Loading
Personal Weather Stations






























Interactive Weather Map New forecast layout! Learn more

10-Day Weather Forecast

Advertisements
Track Severe Weather on mobile